Chris Hadfield Airport
CYZR : now visible

Airfield :











YOU CAN JOIN US ON...

 
LOGIN :

Register | Disclaimer

   EN    FR    IT 

 









Legend :    VFR   Marginal VFR   IFR   Intensive IFR   Very Intensive IFR
Visi :
Ceiling :
>= 8 km
>= 3000ft
5 to 8 km
1000 to 3000 ft
1500m to 5 km
500 to 1000 ft
800 to 1500m
200 to 500 ft
< 800m
< 200 ft
Symbols :   Thunderstorms  Fog  Heavy snow  Heavy precipitations  Wind > 20 kt







- Airport Elevation : 594 ft
- IATA code : YZR


CYZR - Chris Hadfield

CURRENT METAR :
  • 191400Z AUTO 24010G16KT 9SM CLR 29/25 A2984 RMK SLP102 DENSITY ALT 2400FT

EXPIRED METARs :
  • 191300Z AUTO 24009G15KT 9SM FEW030 SCT039 BKN075 BKN088 28/24 A2984 RMK SLP101 DENSITY ALT 2300FT
  • 191200Z AUTO 22009KT 9SM BKN060 BKN075 27/24 A2981 RMK SLP093 DENSITY ALT 2200FT
  • 191100Z AUTO 21008KT 9SM FEW038 SCT060 25/23 A2981 RMK SLP094 DENSITY ALT 2000FT

TAF TAF CYZR
Valid from the 19 at 14:00 until the 20 at 02:00 UTC


191339Z 1914/2002 22010KT P6SM BKN060
FM191700 24012G22KT P6SM BKN050
TEMPO 1917/2002 P6SM -SHRA
PROB30 1917/2002 VRB15G30KT 1SM +TSRA BR BKN015 OVC040CB RMK FCST BASED ON AUTO OBS. NXT FCST BY 192000Z
CZYZ FIR / North America



MET'MAP, your aeronautical weather chart ! - Copyright ORBIFLY December 2007 - Disclaimer

ORBIFLY MET'MAP TEAM :

Programming & Development : Alexandra Zaïnal
Concept & Development : Baudouin d'Aumeries
Co-Development & Prog : Marc-Olivier Méhu
Technical & hardware support : Manuel Goepfert

Contact : metmap@orbifly.com




SOURCES & CREDITS :

   NOAA       Earth
Advisory